Time;durP1;ratioP1;P1;durP2;ratioP2;P2;SDS_P1;SDS_P2;PMS_P1;PMS_P2;Temp;Humidity;BMP_temperature;BMP_pressure;BME280_temperature;BME280_humidity;BME280_pressure;Samples;Min_cycle;Max_cycle;Signal;HPM_P1;HPM_P2
2022/05/26 00:01:36;;;;;;;1.20;0.90;;;;;;;;;;5038795;28;20249;-82
2022/05/26 00:04:03;;;;;;;1.58;1.30;;;;;;;;;;5049151;28;20200;-82
2022/05/26 00:06:31;;;;;;;2.70;1.42;;;;;;;;;;5044061;28;20207;-81
2022/05/26 00:08:58;;;;;;;1.52;1.17;;;;;;;;;;5051192;28;20195;-82
2022/05/26 00:11:28;;;;;;;1.38;1.00;;;;;;;;;;5041983;28;20209;-82
2022/05/26 00:13:55;;;;;;;2.63;1.00;;;;;;;;;;5047738;28;20659;-80
2022/05/26 00:16:23;;;;;;;1.83;1.10;;;;;;;;;;5048641;28;20210;-81
2022/05/26 00:18:52;;;;;;;1.08;0.98;;;;;;;;;;5044639;28;20199;-80
2022/05/26 00:21:19;;;;;;;2.28;1.00;;;;;;;;;;5045885;28;20282;-82
2022/05/26 00:23:46;;;;;;;1.25;1.15;;;;;;;;;;5041028;28;20610;-81
2022/05/26 00:26:14;;;;;;;2.88;1.38;;;;;;;;;;5051525;28;20194;-78
2022/05/26 00:28:41;;;;;;;6.07;2.55;;;;;;;;;;5044321;28;20638;-81
2022/05/26 00:31:08;;;;;;;1.70;1.02;;;;;;;;;;5048944;28;20654;-81
2022/05/26 00:33:35;;;;;;;1.33;1.20;;;;;;;;;;5050430;28;20226;-83
2022/05/26 00:36:05;;;;;;;1.00;0.90;;;;;;;;;;5044243;28;20788;-82
2022/05/26 00:38:32;;;;;;;2.88;1.20;;;;;;;;;;5053499;28;20195;-81
2022/05/26 00:41:02;;;;;;;1.40;1.00;;;;;;;;;;5050336;28;20658;-83
2022/05/26 00:43:29;;;;;;;2.15;1.65;;;;;;;;;;5053100;28;20200;-85
2022/05/26 00:45:58;;;;;;;1.42;1.10;;;;;;;;;;5044699;28;20199;-83
2022/05/26 00:48:28;;;;;;;1.90;1.00;;;;;;;;;;5045956;28;20198;-85
2022/05/26 00:50:56;;;;;;;1.90;0.95;;;;;;;;;;5050828;28;20646;-87
2022/05/26 00:53:27;;;;;;;4.10;1.65;;;;;;;;;;5050061;28;20226;-84
2022/05/26 00:55:56;;;;;;;1.88;1.45;;;;;;;;;;5044654;28;20223;-84
2022/05/26 00:58:24;;;;;;;2.40;1.30;;;;;;;;;;5040040;28;20216;-87
2022/05/26 01:00:51;;;;;;;1.67;1.58;;;;;;;;;;5045873;28;20222;-89
2022/05/26 01:03:20;;;;;;;1.50;1.20;;;;;;;;;;5037066;28;20195;-88
2022/05/26 01:05:49;;;;;;;1.70;1.40;;;;;;;;;;5040568;28;20203;-84
2022/05/26 01:08:20;;;;;;;1.75;1.10;;;;;;;;;;5047273;28;20191;-85
2022/05/26 01:10:48;;;;;;;2.38;1.20;;;;;;;;;;5039884;28;20192;-84
2022/05/26 01:13:16;;;;;;;2.00;1.48;;;;;;;;;;5032850;28;20219;-84
2022/05/26 01:15:48;;;;;;;2.00;1.40;;;;;;;;;;5042442;28;20769;-85
2022/05/26 01:18:18;;;;;;;2.88;1.17;;;;;;;;;;5038557;28;20571;-85
2022/05/26 01:20:52;;;;;;;1.92;1.75;;;;;;;;;;5052205;28;20199;-86
2022/05/26 01:23:38;;;;;;;6.68;1.45;;;;;;;;;;5044997;28;20665;-83
2022/05/26 01:26:23;;;;;;;1.95;1.45;;;;;;;;;;5046282;28;20195;-86
2022/05/26 01:29:11;;;;;;;2.13;1.60;;;;;;;;;;5037836;28;20195;-83
2022/05/26 01:31:43;;;;;;;1.20;1.10;;;;;;;;;;5028044;28;20195;-85
2022/05/26 01:34:15;;;;;;;1.38;1.20;;;;;;;;;;5044471;28;20301;-85
2022/05/26 01:36:43;;;;;;;1.35;1.25;;;;;;;;;;5050517;28;20561;-86
2022/05/26 01:39:17;;;;;;;2.42;1.25;;;;;;;;;;5051790;28;20210;-83
2022/05/26 01:41:49;;;;;;;1.98;1.73;;;;;;;;;;5044185;28;20219;-85
2022/05/26 01:44:22;;;;;;;1.70;1.50;;;;;;;;;;5046893;28;20736;-83
2022/05/26 01:46:51;;;;;;;2.00;1.75;;;;;;;;;;5044948;28;20700;-84
2022/05/26 01:49:23;;;;;;;3.78;1.92;;;;;;;;;;5045726;28;20659;-83
2022/05/26 01:51:54;;;;;;;1.90;1.48;;;;;;;;;;5048253;28;20202;-82
2022/05/26 01:54:24;;;;;;;2.00;1.50;;;;;;;;;;5041358;28;20218;-83
2022/05/26 01:56:54;;;;;;;1.50;1.40;;;;;;;;;;5048548;28;20203;-84
2022/05/26 01:59:24;;;;;;;1.77;1.67;;;;;;;;;;5047826;28;20206;-84
2022/05/26 02:01:54;;;;;;;1.90;1.50;;;;;;;;;;5044361;28;20250;-85
2022/05/26 02:04:24;;;;;;;1.60;1.50;;;;;;;;;;5045031;28;20196;-88
2022/05/26 02:06:53;;;;;;;1.98;1.70;;;;;;;;;;5050118;28;20559;-83
2022/05/26 02:09:22;;;;;;;1.67;1.20;;;;;;;;;;5043685;28;20199;-83
2022/05/26 02:11:53;;;;;;;1.80;1.50;;;;;;;;;;5049344;28;20214;-84
2022/05/26 02:14:22;;;;;;;3.65;1.88;;;;;;;;;;5046428;28;20241;-82
2022/05/26 02:16:50;;;;;;;1.98;1.80;;;;;;;;;;5045475;28;20203;-83
2022/05/26 02:19:23;;;;;;;1.67;1.20;;;;;;;;;;5045912;28;20191;-84
2022/05/26 02:21:57;;;;;;;2.25;1.40;;;;;;;;;;5042338;28;20203;-83
2022/05/26 02:24:25;;;;;;;2.10;1.40;;;;;;;;;;5043592;28;20190;-84
2022/05/26 02:26:52;;;;;;;1.48;1.30;;;;;;;;;;5050599;28;20252;-84
2022/05/26 02:32:05;;;;;;;1.67;1.13;;;;;;;;;;5047502;28;20555;-81
2022/05/26 02:34:35;;;;;;;1.50;1.30;;;;;;;;;;5042916;28;20223;-81
2022/05/26 02:37:03;;;;;;;1.50;1.30;;;;;;;;;;5046493;28;20202;-80
2022/05/26 02:39:30;;;;;;;1.40;1.30;;;;;;;;;;5044533;28;20199;-80
2022/05/26 02:41:59;;;;;;;1.75;1.40;;;;;;;;;;5054640;28;20594;-83
2022/05/26 02:44:26;;;;;;;1.58;1.38;;;;;;;;;;5042180;28;20570;-82
2022/05/26 02:47:00;;;;;;;3.25;1.70;;;;;;;;;;5040591;28;20227;-82
2022/05/26 02:49:33;;;;;;;2.20;1.73;;;;;;;;;;5040014;28;20195;-82
2022/05/26 02:52:03;;;;;;;1.42;1.33;;;;;;;;;;5053707;28;20634;-83
2022/05/26 02:54:33;;;;;;;1.50;1.40;;;;;;;;;;5047434;28;20226;-83
2022/05/26 02:57:08;;;;;;;1.40;1.30;;;;;;;;;;5049082;28;20191;-81
2022/05/26 02:59:37;;;;;;;2.17;1.33;;;;;;;;;;5034589;28;20694;-81
2022/05/26 03:02:08;;;;;;;2.58;1.88;;;;;;;;;;5042467;28;20249;-83
2022/05/26 03:04:37;;;;;;;3.67;1.60;;;;;;;;;;5042933;28;20195;-82
2022/05/26 03:07:09;;;;;;;2.72;2.00;;;;;;;;;;5057074;28;20194;-82
2022/05/26 03:09:37;;;;;;;3.00;1.60;;;;;;;;;;5050959;28;20194;-82
2022/05/26 03:12:04;;;;;;;3.63;1.55;;;;;;;;;;5047934;28;20199;-82
2022/05/26 03:14:32;;;;;;;1.70;1.60;;;;;;;;;;5041205;28;20219;-82
2022/05/26 03:16:59;;;;;;;1.85;1.40;;;;;;;;;;5037692;28;20199;-81
2022/05/26 03:19:27;;;;;;;1.45;1.33;;;;;;;;;;5040642;28;20199;-82
2022/05/26 03:21:54;;;;;;;3.08;1.98;;;;;;;;;;5050824;28;20203;-82
2022/05/26 03:24:22;;;;;;;2.65;2.15;;;;;;;;;;5047910;28;20191;-83
2022/05/26 03:26:49;;;;;;;2.42;1.67;;;;;;;;;;5053765;28;20198;-83
2022/05/26 03:29:16;;;;;;;2.00;1.40;;;;;;;;;;5042334;28;20658;-82
2022/05/26 03:31:43;;;;;;;2.00;1.63;;;;;;;;;;5043206;28;20214;-83
2022/05/26 03:42:25;;;;;;;1.75;1.45;;;;;;;;;;5039520;28;20719;-84
2022/05/26 03:44:52;;;;;;;4.15;1.60;;;;;;;;;;5040516;28;20195;-83
2022/05/26 03:47:20;;;;;;;1.77;1.67;;;;;;;;;;5047546;28;20210;-83
2022/05/26 03:49:47;;;;;;;2.10;2.00;;;;;;;;;;5047553;28;20203;-83
2022/05/26 03:52:14;;;;;;;2.60;1.90;;;;;;;;;;5051308;28;20207;-83
2022/05/26 03:54:43;;;;;;;1.65;1.52;;;;;;;;;;5048380;28;20222;-81
2022/05/26 03:57:10;;;;;;;4.10;1.98;;;;;;;;;;5048897;28;20562;-80
2022/05/26 03:59:43;;;;;;;2.25;2.05;;;;;;;;;;5046354;28;20195;-81
2022/05/26 04:02:10;;;;;;;1.75;1.65;;;;;;;;;;5049192;28;20612;-82
2022/05/26 04:04:37;;;;;;;2.60;2.00;;;;;;;;;;5042837;28;20650;-81
2022/05/26 04:07:04;;;;;;;2.42;2.22;;;;;;;;;;5049646;28;20246;-81
2022/05/26 04:09:31;;;;;;;1.88;1.77;;;;;;;;;;5050850;28;20603;-81
2022/05/26 04:11:59;;;;;;;2.85;2.00;;;;;;;;;;5050560;28;20207;-81
2022/05/26 04:14:27;;;;;;;4.15;2.20;;;;;;;;;;5044328;28;20234;-82
2022/05/26 04:16:54;;;;;;;2.40;1.90;;;;;;;;;;5051932;28;20206;-81
2022/05/26 04:19:21;;;;;;;2.00;1.90;;;;;;;;;;5047923;28;20646;-82
2022/05/26 04:24:32;;;;;;;2.33;2.00;;;;;;;;;;5049357;28;20280;-79
2022/05/26 04:27:01;;;;;;;2.28;1.88;;;;;;;;;;5049239;28;20736;-79
2022/05/26 04:29:29;;;;;;;2.50;1.88;;;;;;;;;;5041911;28;20200;-80
2022/05/26 04:31:56;;;;;;;4.25;1.95;;;;;;;;;;5039406;28;20261;-79
2022/05/26 04:34:23;;;;;;;3.10;1.92;;;;;;;;;;5045190;28;20208;-81
2022/05/26 04:36:51;;;;;;;5.55;2.10;;;;;;;;;;5055165;28;20199;-81
2022/05/26 04:39:18;;;;;;;3.00;1.77;;;;;;;;;;5049314;28;20191;-82
2022/05/26 04:41:46;;;;;;;2.80;2.10;;;;;;;;;;5055829;28;20215;-82
2022/05/26 04:44:15;;;;;;;3.45;2.20;;;;;;;;;;5049800;28;20195;-82
2022/05/26 04:46:42;;;;;;;4.22;2.47;;;;;;;;;;5042724;28;20208;-81
2022/05/26 04:49:10;;;;;;;5.25;3.03;;;;;;;;;;5042934;28;20200;-82
2022/05/26 04:51:38;;;;;;;3.05;2.40;;;;;;;;;;5040895;28;21917;-81
2022/05/26 04:54:06;;;;;;;4.38;2.40;;;;;;;;;;5047218;28;20219;-81
2022/05/26 04:56:33;;;;;;;2.70;2.50;;;;;;;;;;5046511;28;20195;-81
2022/05/26 04:59:00;;;;;;;2.85;2.60;;;;;;;;;;5040108;28;20581;-82
2022/05/26 05:01:28;;;;;;;2.83;2.28;;;;;;;;;;5040363;28;20199;-82
2022/05/26 05:03:56;;;;;;;2.38;2.17;;;;;;;;;;5037754;28;20195;-81
2022/05/26 05:06:23;;;;;;;2.90;2.70;;;;;;;;;;5042234;28;20234;-81
2022/05/26 05:08:51;;;;;;;3.08;2.63;;;;;;;;;;5051282;28;20272;-79
2022/05/26 05:11:18;;;;;;;2.63;2.42;;;;;;;;;;5033185;28;20293;-79
2022/05/26 05:13:45;;;;;;;4.35;3.20;;;;;;;;;;5035988;28;20229;-80
2022/05/26 05:16:16;;;;;;;2.25;1.90;;;;;;;;;;5050201;28;20191;-80
2022/05/26 05:18:45;;;;;;;2.67;2.47;;;;;;;;;;5035503;28;20218;-80
2022/05/26 05:21:15;;;;;;;3.78;3.47;;;;;;;;;;5040848;28;20191;-79
2022/05/26 05:23:46;;;;;;;3.28;2.83;;;;;;;;;;5032244;28;20195;-80
2022/05/26 05:26:15;;;;;;;3.13;2.67;;;;;;;;;;5051929;28;20202;-81
2022/05/26 05:28:44;;;;;;;3.58;3.28;;;;;;;;;;5039152;28;20199;-80
2022/05/26 05:31:13;;;;;;;3.72;3.17;;;;;;;;;;5043290;28;20200;-80
2022/05/26 05:33:42;;;;;;;4.15;3.35;;;;;;;;;;5047801;28;20249;-81
2022/05/26 05:36:11;;;;;;;4.78;4.38;;;;;;;;;;5048302;28;20215;-81
2022/05/26 05:38:39;;;;;;;4.13;3.22;;;;;;;;;;5051879;28;20191;-82
2022/05/26 05:41:06;;;;;;;4.97;3.05;;;;;;;;;;5051025;28;20203;-81
2022/05/26 05:43:34;;;;;;;4.72;2.80;;;;;;;;;;5048529;28;20210;-80
2022/05/26 05:46:01;;;;;;;4.57;3.33;;;;;;;;;;5040950;28;20192;-80
2022/05/26 05:48:28;;;;;;;3.60;3.30;;;;;;;;;;5047718;28;20198;-80
2022/05/26 05:50:55;;;;;;;4.13;3.50;;;;;;;;;;5039166;28;20646;-82
2022/05/26 05:53:24;;;;;;;4.68;3.15;;;;;;;;;;5043823;28;20256;-80
2022/05/26 05:55:51;;;;;;;4.63;3.47;;;;;;;;;;5042514;28;20216;-79
2022/05/26 05:58:18;;;;;;;2.47;2.28;;;;;;;;;;5046223;28;20195;-80
2022/05/26 06:00:45;;;;;;;2.70;2.50;;;;;;;;;;5046426;28;20202;-83
2022/05/26 06:03:12;;;;;;;4.28;2.85;;;;;;;;;;5048670;28;20260;-81
2022/05/26 06:05:39;;;;;;;3.13;2.92;;;;;;;;;;5047594;28;20198;-83
2022/05/26 06:08:07;;;;;;;3.45;2.88;;;;;;;;;;5049417;28;20202;-82
2022/05/26 06:10:35;;;;;;;3.33;3.03;;;;;;;;;;5049495;28;20214;-81
2022/05/26 06:13:02;;;;;;;2.97;2.78;;;;;;;;;;5034254;28;20197;-81
2022/05/26 06:15:30;;;;;;;2.47;2.28;;;;;;;;;;5039809;28;20361;-81
2022/05/26 06:17:58;;;;;;;3.85;3.55;;;;;;;;;;5049411;28;20206;-81
2022/05/26 06:20:26;;;;;;;5.47;3.08;;;;;;;;;;5040020;28;20203;-81
2022/05/26 06:22:53;;;;;;;2.88;2.67;;;;;;;;;;5042552;28;20219;-82
2022/05/26 06:25:21;;;;;;;2.70;2.33;;;;;;;;;;5047658;28;20723;-82
2022/05/26 06:30:34;;;;;;;5.53;3.30;;;;;;;;;;5043994;28;20207;-81
2022/05/26 06:38:33;;;;;;;4.03;3.03;;;;;;;;;;5050774;28;20561;-80
2022/05/26 06:42:05;;;;;;;3.03;2.83;;;;;;;;;;5051272;28;20198;-81
2022/05/26 06:43:48;;;;;;;3.33;3.13;;;;;;;;;;5045279;28;20202;-80
2022/05/26 06:46:16;;;;;;;4.45;3.65;;;;;;;;;;5044496;28;20199;-81
2022/05/26 06:48:43;;;;;;;3.17;2.97;;;;;;;;;;5043672;28;20195;-80
2022/05/26 06:51:10;;;;;;;3.60;3.20;;;;;;;;;;5045203;28;20214;-80
2022/05/26 06:53:38;;;;;;;4.35;3.22;;;;;;;;;;5038899;28;20664;-80
2022/05/26 06:56:05;;;;;;;3.30;3.10;;;;;;;;;;5043448;28;20219;-81
2022/05/26 06:58:32;;;;;;;3.60;3.30;;;;;;;;;;5038754;28;20334;-80
2022/05/26 07:01:01;;;;;;;3.30;3.00;;;;;;;;;;5045641;28;20199;-81
2022/05/26 07:03:28;;;;;;;3.55;3.25;;;;;;;;;;5044486;28;20207;-80
2022/05/26 07:05:56;;;;;;;4.03;3.63;;;;;;;;;;5041059;28;20195;-80
2022/05/26 07:08:23;;;;;;;3.97;3.42;;;;;;;;;;5038127;28;20199;-79
2022/05/26 07:10:54;;;;;;;3.58;3.20;;;;;;;;;;5044709;28;20222;-83
2022/05/26 07:13:23;;;;;;;3.72;3.42;;;;;;;;;;5039270;28;20199;-82
2022/05/26 07:15:50;;;;;;;4.47;4.07;;;;;;;;;;5044410;28;20294;-84
2022/05/26 07:18:19;;;;;;;5.75;3.33;;;;;;;;;;5044499;28;20206;-82
2022/05/26 07:20:46;;;;;;;3.78;3.40;;;;;;;;;;5041726;28;20296;-83
2022/05/26 07:23:13;;;;;;;4.45;3.70;;;;;;;;;;5048937;28;20561;-83
2022/05/26 07:25:40;;;;;;;3.70;2.92;;;;;;;;;;5052823;28;20187;-83
2022/05/26 07:28:08;;;;;;;6.28;3.80;;;;;;;;;;5051588;28;20659;-81
2022/05/26 07:30:35;;;;;;;5.07;3.17;;;;;;;;;;5058963;28;20295;-85
2022/05/26 07:33:02;;;;;;;3.53;3.10;;;;;;;;;;5051973;28;20769;-83
2022/05/26 07:35:30;;;;;;;3.08;2.65;;;;;;;;;;5043963;28;20246;-89
2022/05/26 07:43:29;;;;;;;5.88;3.45;;;;;;;;;;5044529;28;20203;-84
2022/05/26 07:45:56;;;;;;;3.97;3.55;;;;;;;;;;5049647;28;20456;-85
2022/05/26 07:48:23;;;;;;;7.35;3.53;;;;;;;;;;5053439;28;20203;-84
2022/05/26 07:50:51;;;;;;;3.17;2.92;;;;;;;;;;5051938;28;20662;-88
2022/05/26 07:53:18;;;;;;;3.50;3.10;;;;;;;;;;5054067;28;20313;-86
2022/05/26 07:55:45;;;;;;;4.88;3.28;;;;;;;;;;5045871;28;20226;-82
2022/05/26 07:58:13;;;;;;;4.40;3.63;;;;;;;;;;5055473;28;20195;-87
2022/05/26 08:00:40;;;;;;;4.55;3.70;;;;;;;;;;5044722;28;20207;-83
2022/05/26 08:03:08;;;;;;;5.90;3.17;;;;;;;;;;5052946;28;20203;-83
2022/05/26 08:05:35;;;;;;;5.25;3.95;;;;;;;;;;5045728;28;20746;-85
2022/05/26 08:08:04;;;;;;;4.50;3.88;;;;;;;;;;5046267;28;20191;-85
2022/05/26 08:10:31;;;;;;;3.90;3.55;;;;;;;;;;5053024;28;20203;-86
2022/05/26 08:12:58;;;;;;;4.78;4.20;;;;;;;;;;5052992;28;20221;-84
2022/05/26 08:15:25;;;;;;;4.22;3.83;;;;;;;;;;5039245;28;20223;-86
2022/05/26 08:17:53;;;;;;;3.53;3.22;;;;;;;;;;5051586;28;20195;-90
2022/05/26 08:20:20;;;;;;;3.60;3.30;;;;;;;;;;5046627;28;20198;-88
2022/05/26 08:22:47;;;;;;;4.60;3.63;;;;;;;;;;5057656;28;20206;-87
2022/05/26 08:25:15;;;;;;;4.00;3.60;;;;;;;;;;5049375;28;20763;-82
2022/05/26 08:27:42;;;;;;;4.72;4.32;;;;;;;;;;5047582;28;20202;-86
2022/05/26 08:30:10;;;;;;;4.63;4.22;;;;;;;;;;5046603;28;20192;-84
2022/05/26 08:32:37;;;;;;;4.22;3.90;;;;;;;;;;5051529;28;20201;-83
2022/05/26 08:35:05;;;;;;;4.18;3.80;;;;;;;;;;5045341;28;20211;-84
2022/05/26 08:37:32;;;;;;;4.28;3.88;;;;;;;;;;5047090;28;20210;-87
2022/05/26 08:40:00;;;;;;;6.85;4.38;;;;;;;;;;5052901;28;20202;-87
2022/05/26 08:42:29;;;;;;;6.80;3.90;;;;;;;;;;5052648;28;20221;-85
2022/05/26 08:44:58;;;;;;;5.50;3.22;;;;;;;;;;5045948;28;20670;-87
2022/05/26 08:47:30;;;;;;;3.42;3.13;;;;;;;;;;5045847;28;20208;-87
2022/05/26 08:49:59;;;;;;;4.50;4.10;;;;;;;;;;5052886;28;20219;-87
2022/05/26 08:52:30;;;;;;;4.10;2.95;;;;;;;;;;5052778;28;20198;-85
2022/05/26 08:55:02;;;;;;;3.75;3.35;;;;;;;;;;5051506;28;20203;-86
2022/05/26 08:57:33;;;;;;;6.35;4.05;;;;;;;;;;5044315;28;20229;-85
2022/05/26 09:00:01;;;;;;;5.50;3.95;;;;;;;;;;5044500;28;20601;-85
2022/05/26 09:02:30;;;;;;;3.85;3.55;;;;;;;;;;5050814;28;20225;-84
2022/05/26 09:04:58;;;;;;;4.13;3.72;;;;;;;;;;5047439;28;20198;-86
2022/05/26 09:13:05;;;;;;;4.68;3.55;;;;;;;;;;5047637;28;20241;-87
2022/05/26 09:15:34;;;;;;;3.58;3.28;;;;;;;;;;5047546;28;20580;-84
2022/05/26 09:18:10;;;;;;;3.78;3.47;;;;;;;;;;5054868;28;20511;-84
2022/05/26 09:20:39;;;;;;;3.45;3.15;;;;;;;;;;5055530;28;20226;-84
2022/05/26 09:23:11;;;;;;;4.05;3.75;;;;;;;;;;5060172;28;20194;-83
2022/05/26 09:25:40;;;;;;;7.50;3.50;;;;;;;;;;5052405;28;20202;-85
2022/05/26 09:28:10;;;;;;;4.28;3.88;;;;;;;;;;5045865;28;20554;-85
2022/05/26 09:30:37;;;;;;;4.38;4.07;;;;;;;;;;5037003;28;20211;-82
2022/05/26 09:33:17;;;;;;;4.47;3.70;;;;;;;;;;5048475;28;20198;-84
2022/05/26 09:35:44;;;;;;;5.40;4.25;;;;;;;;;;5051376;28;20217;-86
2022/05/26 09:38:16;;;;;;;4.55;4.13;;;;;;;;;;5046993;28;20222;-85
2022/05/26 09:40:46;;;;;;;5.20;4.70;;;;;;;;;;5054153;28;20194;-83
2022/05/26 09:43:23;;;;;;;4.25;3.85;;;;;;;;;;5046096;28;20211;-85
2022/05/26 09:45:51;;;;;;;5.38;3.90;;;;;;;;;;5050034;28;20242;-87
2022/05/26 09:48:20;;;;;;;3.60;3.28;;;;;;;;;;5054024;28;20195;-85
2022/05/26 09:50:49;;;;;;;6.38;4.53;;;;;;;;;;5049637;28;20203;-86
2022/05/26 09:53:28;;;;;;;4.70;4.30;;;;;;;;;;5041831;28;20194;-87
2022/05/26 09:55:55;;;;;;;5.57;4.70;;;;;;;;;;5041267;28;20225;-86
2022/05/26 09:58:29;;;;;;;4.53;4.13;;;;;;;;;;5042562;28;20203;-86
2022/05/26 10:00:57;;;;;;;5.03;3.83;;;;;;;;;;5044868;28;20203;-90
2022/05/26 10:03:29;;;;;;;5.53;5.03;;;;;;;;;;5042777;28;20650;-85
2022/05/26 10:06:03;;;;;;;4.53;3.95;;;;;;;;;;5042714;28;20540;-88
2022/05/26 10:08:32;;;;;;;3.95;3.65;;;;;;;;;;5050324;28;20622;-85
2022/05/26 10:11:00;;;;;;;6.40;4.65;;;;;;;;;;5044567;28;20685;-84
2022/05/26 10:13:42;;;;;;;3.95;3.65;;;;;;;;;;5047517;28;20207;-87
2022/05/26 10:16:12;;;;;;;4.47;4.10;;;;;;;;;;5055385;28;20227;-84
2022/05/26 10:18:56;;;;;;;4.82;3.80;;;;;;;;;;5044623;28;20207;-87
2022/05/26 10:21:28;;;;;;;4.38;4.07;;;;;;;;;;5046049;28;20210;-88
2022/05/26 10:24:06;;;;;;;4.63;4.07;;;;;;;;;;5044169;28;20199;-86
2022/05/26 10:26:41;;;;;;;5.03;4.32;;;;;;;;;;5049148;28;20642;-87
2022/05/26 10:29:24;;;;;;;4.93;4.47;;;;;;;;;;5041339;28;20199;-88
2022/05/26 10:31:58;;;;;;;4.75;4.32;;;;;;;;;;5045363;28;20202;-88
2022/05/26 10:34:43;;;;;;;4.20;3.72;;;;;;;;;;5052997;28;20680;-86
2022/05/26 10:37:18;;;;;;;3.63;3.40;;;;;;;;;;5048773;28;20226;-88
2022/05/26 10:39:57;;;;;;;4.40;3.55;;;;;;;;;;5039007;28;20190;-84
2022/05/26 10:42:27;;;;;;;4.15;3.85;;;;;;;;;;5047616;28;20218;-86
2022/05/26 10:45:02;;;;;;;4.32;3.33;;;;;;;;;;5046649;28;20242;-85
2022/05/26 10:47:30;;;;;;;3.53;3.28;;;;;;;;;;5039405;28;20201;-89
2022/05/26 10:50:01;;;;;;;3.88;3.58;;;;;;;;;;5046373;28;20203;-87
2022/05/26 10:52:30;;;;;;;3.78;3.47;;;;;;;;;;5051529;28;20210;-88
2022/05/26 10:55:02;;;;;;;6.55;4.18;;;;;;;;;;5048952;28;20195;-84
2022/05/26 10:57:35;;;;;;;4.05;3.65;;;;;;;;;;5066141;28;20222;-87
2022/05/26 11:00:05;;;;;;;4.15;3.85;;;;;;;;;;5044911;28;20195;-87
2022/05/26 11:02:35;;;;;;;4.13;3.72;;;;;;;;;;5043691;28;20204;-84
2022/05/26 11:05:06;;;;;;;6.85;3.50;;;;;;;;;;5057285;28;20211;-91
2022/05/26 11:07:34;;;;;;;4.60;3.67;;;;;;;;;;5051803;28;20211;-88
2022/05/26 11:10:05;;;;;;;3.90;3.45;;;;;;;;;;5056706;28;20203;-87
2022/05/26 11:12:36;;;;;;;6.85;4.10;;;;;;;;;;5045144;28;20214;-87
2022/05/26 11:17:55;;;;;;;5.53;3.38;;;;;;;;;;5048992;28;20284;-89
2022/05/26 11:20:23;;;;;;;5.60;3.15;;;;;;;;;;5039396;28;20271;-87
2022/05/26 11:22:52;;;;;;;4.35;3.65;;;;;;;;;;5046712;28;20195;-89
2022/05/26 11:25:23;;;;;;;4.80;3.55;;;;;;;;;;5047813;28;20207;-89
2022/05/26 11:27:53;;;;;;;3.65;3.38;;;;;;;;;;5048401;28;20199;-85
2022/05/26 11:36:09;;;;;;;3.50;3.20;;;;;;;;;;5049429;28;20336;-86
2022/05/26 11:38:37;;;;;;;3.90;3.60;;;;;;;;;;5050951;28;20190;-87
2022/05/26 11:41:05;;;;;;;4.80;4.30;;;;;;;;;;5051845;28;20673;-85
2022/05/26 11:43:37;;;;;;;6.40;4.07;;;;;;;;;;5050953;28;20214;-84
2022/05/26 11:46:05;;;;;;;3.83;3.53;;;;;;;;;;5048090;28;20195;-87
2022/05/26 11:48:40;;;;;;;4.18;3.53;;;;;;;;;;5047210;28;20218;-87
2022/05/26 11:51:26;;;;;;;5.03;3.38;;;;;;;;;;5037197;28;20256;-83
2022/05/26 11:53:53;;;;;;;4.85;3.63;;;;;;;;;;5051392;28;20693;-85
2022/05/26 11:56:35;;;;;;;3.88;3.38;;;;;;;;;;5048547;28;20222;-85
2022/05/26 11:59:35;;;;;;;3.47;3.17;;;;;;;;;;5029659;28;20195;-85
2022/05/26 12:02:32;;;;;;;3.25;2.90;;;;;;;;;;5045287;28;20662;-83
2022/05/26 12:05:20;;;;;;;4.32;3.90;;;;;;;;;;5037809;28;20223;-86
2022/05/26 12:07:50;;;;;;;3.28;2.90;;;;;;;;;;5045391;28;20677;-86
2022/05/26 12:10:22;;;;;;;5.50;3.80;;;;;;;;;;5044208;28;20210;-86
2022/05/26 12:12:49;;;;;;;5.32;3.80;;;;;;;;;;5047075;28;20289;-85
2022/05/26 12:15:18;;;;;;;4.07;3.55;;;;;;;;;;5046056;28;20218;-83
2022/05/26 12:17:48;;;;;;;3.88;3.50;;;;;;;;;;5048581;28;20239;-84
2022/05/26 12:20:35;;;;;;;4.18;3.78;;;;;;;;;;5047299;28;20245;-85
2022/05/26 12:23:27;;;;;;;4.80;3.35;;;;;;;;;;5051483;28;20195;-85
2022/05/26 12:26:13;;;;;;;3.50;3.08;;;;;;;;;;5050097;28;20238;-86
2022/05/26 12:28:40;;;;;;;4.47;3.45;;;;;;;;;;5045155;28;20226;-84
2022/05/26 12:31:08;;;;;;;3.83;3.50;;;;;;;;;;5048661;28;20202;-84
2022/05/26 12:33:41;;;;;;;4.18;3.15;;;;;;;;;;5052646;28;20201;-85
2022/05/26 12:36:14;;;;;;;4.15;3.00;;;;;;;;;;5048776;28;20210;-87
2022/05/26 12:38:50;;;;;;;3.53;3.33;;;;;;;;;;5052604;28;20187;-85
2022/05/26 12:41:21;;;;;;;3.95;3.33;;;;;;;;;;5047465;28;20218;-86
2022/05/26 12:43:57;;;;;;;2.85;2.65;;;;;;;;;;5047330;28;20195;-84
2022/05/26 12:46:32;;;;;;;3.53;3.22;;;;;;;;;;5042146;28;20203;-85
2022/05/26 12:49:04;;;;;;;5.10;3.80;;;;;;;;;;5041475;28;20203;-86
2022/05/26 12:51:34;;;;;;;5.25;3.20;;;;;;;;;;5054476;28;20202;-85
2022/05/26 12:54:05;;;;;;;3.20;2.90;;;;;;;;;;5047637;28;20201;-86
2022/05/26 12:56:40;;;;;;;3.85;3.55;;;;;;;;;;5046512;28;20225;-85
2022/05/26 12:59:07;;;;;;;5.53;3.40;;;;;;;;;;5037959;28;20206;-85
2022/05/26 13:01:34;;;;;;;3.90;3.50;;;;;;;;;;5045653;28;20214;-87
2022/05/26 13:04:05;;;;;;;5.72;3.95;;;;;;;;;;5047602;28;20210;-86
2022/05/26 13:06:33;;;;;;;3.80;3.50;;;;;;;;;;5050012;28;20202;-84
2022/05/26 13:09:04;;;;;;;4.18;3.78;;;;;;;;;;5039928;28;20662;-86
2022/05/26 13:11:34;;;;;;;3.97;2.97;;;;;;;;;;5051941;28;20619;-84
2022/05/26 13:14:02;;;;;;;3.33;2.80;;;;;;;;;;5043442;28;20267;-84
2022/05/26 13:16:31;;;;;;;4.78;3.83;;;;;;;;;;5046004;28;20705;-87
2022/05/26 13:19:07;;;;;;;3.67;2.90;;;;;;;;;;5045990;28;20198;-84
2022/05/26 13:21:34;;;;;;;9.38;3.38;;;;;;;;;;5045995;28;20203;-86
2022/05/26 13:24:03;;;;;;;3.75;2.70;;;;;;;;;;5048550;28;20207;-83
2022/05/26 13:26:30;;;;;;;4.20;3.80;;;;;;;;;;5047123;28;20205;-85
2022/05/26 13:28:58;;;;;;;6.80;3.80;;;;;;;;;;5043117;28;20214;-84
2022/05/26 13:34:11;;;;;;;4.22;3.25;;;;;;;;;;5046652;28;20254;-89
2022/05/26 13:36:39;;;;;;;5.60;2.83;;;;;;;;;;5050860;28;20222;-85
2022/05/26 13:39:09;;;;;;;3.25;2.85;;;;;;;;;;5048717;28;20662;-85
2022/05/26 13:41:37;;;;;;;7.25;4.55;;;;;;;;;;5051210;28;20650;-88
2022/05/26 13:44:05;;;;;;;3.28;2.97;;;;;;;;;;5037726;28;20206;-87
2022/05/26 13:46:33;;;;;;;4.43;3.08;;;;;;;;;;5050479;28;20544;-90
2022/05/26 13:49:01;;;;;;;3.40;3.10;;;;;;;;;;5042648;28;20203;-85
2022/05/26 13:51:36;;;;;;;3.22;3.00;;;;;;;;;;5047386;28;20566;-86
2022/05/26 13:54:15;;;;;;;4.00;3.53;;;;;;;;;;5050725;28;20245;-85
2022/05/26 13:56:45;;;;;;;4.30;3.00;;;;;;;;;;5050450;28;20227;-86
2022/05/26 13:59:13;;;;;;;3.78;2.30;;;;;;;;;;5044673;28;20211;-84
2022/05/26 14:01:48;;;;;;;4.53;3.47;;;;;;;;;;5047802;28;20264;-86
2022/05/26 14:04:21;;;;;;;5.55;3.00;;;;;;;;;;5044997;28;20191;-87
2022/05/26 14:06:48;;;;;;;4.05;2.97;;;;;;;;;;5046456;28;20199;-89
2022/05/26 14:09:26;;;;;;;4.55;3.13;;;;;;;;;;5044783;28;20199;-85
2022/05/26 14:12:03;;;;;;;3.55;3.08;;;;;;;;;;5037344;28;20207;-89
2022/05/26 14:14:32;;;;;;;4.32;3.03;;;;;;;;;;5050049;28;20850;-88
2022/05/26 14:17:00;;;;;;;4.75;3.55;;;;;;;;;;5049185;28;20245;-91
2022/05/26 14:19:29;;;;;;;3.25;2.40;;;;;;;;;;5053202;28;20207;-88
2022/05/26 14:21:57;;;;;;;2.95;2.75;;;;;;;;;;5058999;28;21134;-88
2022/05/26 14:24:32;;;;;;;4.10;2.97;;;;;;;;;;5058330;28;20199;-86
2022/05/26 14:27:14;;;;;;;7.70;3.38;;;;;;;;;;5048935;28;20642;-86
2022/05/26 14:29:43;;;;;;;3.67;2.85;;;;;;;;;;5049194;28;20201;-87
2022/05/26 14:32:12;;;;;;;3.97;2.88;;;;;;;;;;5047709;28;20234;-86
2022/05/26 14:34:40;;;;;;;3.08;2.88;;;;;;;;;;5050796;28;20207;-88
2022/05/26 14:37:08;;;;;;;2.97;2.78;;;;;;;;;;5045899;28;20218;-91
2022/05/26 14:39:36;;;;;;;3.38;2.50;;;;;;;;;;5046429;28;20337;-89
2022/05/26 14:42:05;;;;;;;3.30;3.00;;;;;;;;;;5050191;28;20262;-91
2022/05/26 14:44:32;;;;;;;3.80;2.90;;;;;;;;;;5042265;28;20200;-89
2022/05/26 14:47:02;;;;;;;2.90;2.70;;;;;;;;;;5041540;28;20207;-92
2022/05/26 14:49:29;;;;;;;3.13;2.92;;;;;;;;;;5031142;28;20588;-90
2022/05/26 14:51:56;;;;;;;3.30;2.80;;;;;;;;;;5046661;28;20199;-86
2022/05/26 14:57:11;;;;;;;2.63;2.33;;;;;;;;;;5039111;28;20227;-88
2022/05/26 14:59:39;;;;;;;2.70;2.50;;;;;;;;;;5047479;28;20203;-87
2022/05/26 15:02:06;;;;;;;2.92;2.72;;;;;;;;;;5049629;28;20574;-89
2022/05/26 15:04:33;;;;;;;3.33;2.78;;;;;;;;;;5050060;28;20206;-88
2022/05/26 15:07:00;;;;;;;3.05;2.40;;;;;;;;;;5045231;28;20212;-84
2022/05/26 15:09:28;;;;;;;3.33;2.35;;;;;;;;;;5045471;28;20216;-85
2022/05/26 15:11:57;;;;;;;3.15;2.22;;;;;;;;;;5047334;28;20557;-85
2022/05/26 15:14:26;;;;;;;2.90;2.70;;;;;;;;;;5046504;28;20211;-86
2022/05/26 15:16:54;;;;;;;4.25;2.50;;;;;;;;;;5036260;28;20204;-86
2022/05/26 15:19:22;;;;;;;5.07;2.70;;;;;;;;;;5037664;28;20207;-87
2022/05/26 15:21:49;;;;;;;2.75;1.73;;;;;;;;;;5044137;28;20261;-85
2022/05/26 15:24:16;;;;;;;3.90;2.88;;;;;;;;;;5045318;28;20577;-84
2022/05/26 15:26:44;;;;;;;3.15;2.60;;;;;;;;;;5041241;28;20215;-87
2022/05/26 15:29:11;;;;;;;3.35;3.00;;;;;;;;;;5032689;28;20222;-83
2022/05/26 15:31:39;;;;;;;3.35;2.50;;;;;;;;;;5044025;28;20199;-84
2022/05/26 15:34:07;;;;;;;3.38;2.55;;;;;;;;;;5039777;28;20245;-87
2022/05/26 15:36:35;;;;;;;4.22;3.00;;;;;;;;;;5039352;28;20663;-86
2022/05/26 15:39:02;;;;;;;4.05;2.72;;;;;;;;;;5042123;28;20694;-86
2022/05/26 15:41:29;;;;;;;6.20;2.53;;;;;;;;;;5040823;28;20223;-86
2022/05/26 15:43:58;;;;;;;2.42;2.22;;;;;;;;;;5038068;28;21252;-86
2022/05/26 15:46:27;;;;;;;3.47;2.33;;;;;;;;;;5044215;28;20574;-87